createdAt,value
2018-08-23T00:00:47.214Z,95001.17
2018-08-23T00:03:21.567Z,94994.70
2018-08-23T00:05:53.962Z,94996.69
2018-08-23T00:08:23.637Z,95000.27
2018-08-23T00:10:53.586Z,94999.59
2018-08-23T00:13:23.356Z,95006.98
2018-08-23T00:15:52.603Z,95000.27
2018-08-23T00:18:21.876Z,95002.44
2018-08-23T00:20:51.102Z,94996.97
2018-08-23T00:23:20.342Z,95000.44
2018-08-23T00:25:49.572Z,95005.06
2018-08-23T00:28:18.799Z,95003.16
2018-08-23T00:30:48.054Z,95002.67
2018-08-23T00:33:17.308Z,95004.92
2018-08-23T00:35:46.542Z,95004.39
2018-08-23T00:38:16.179Z,95004.48
2018-08-23T00:40:45.781Z,95006.30
2018-08-23T00:43:15.379Z,95003.88
2018-08-23T00:45:44.762Z,95005.05
2018-08-23T00:48:14.011Z,95002.11
2018-08-23T00:50:54.394Z,94999.55
2018-08-23T00:53:23.767Z,94994.77
2018-08-23T00:56:26.615Z,94999.42
2018-08-23T00:59:01.617Z,95002.16
2018-08-23T01:01:31.483Z,94999.63
2018-08-23T01:04:00.722Z,94997.44
2018-08-23T01:06:45.539Z,94997.17
2018-08-23T01:09:15.039Z,94992.39
2018-08-23T01:11:46.781Z,94993.44
2018-08-23T01:14:16.031Z,94996.19
2018-08-23T01:17:03.225Z,95002.48
2018-08-23T01:19:37.544Z,95003.40
2018-08-23T01:22:07.920Z,95003.62
2018-08-23T01:24:37.135Z,94991.52
2018-08-23T01:27:10.933Z,94990.38
2018-08-23T01:29:44.299Z,94984.98
2018-08-23T01:32:17.865Z,94982.19
2018-08-23T01:34:47.120Z,94977.48
2018-08-23T01:37:34.732Z,94975.91
2018-08-23T01:40:06.085Z,94981.53
2018-08-23T01:42:36.424Z,94974.59
2018-08-23T01:45:07.286Z,94981.02
2018-08-23T01:47:45.135Z,94978.37
2018-08-23T01:50:15.054Z,94976.97
2018-08-23T01:52:44.987Z,94979.42
2018-08-23T01:55:15.042Z,94979.61
2018-08-23T01:57:44.616Z,94978.86
2018-08-23T02:00:17.795Z,94973.38
2018-08-23T02:02:47.138Z,94972.73
2018-08-23T02:05:16.394Z,94971.41
2018-08-23T02:07:45.643Z,94969.94
2018-08-23T02:10:14.995Z,94972.18
2018-08-23T02:12:50.906Z,94977.83
2018-08-23T02:15:20.547Z,94980.98
2018-08-23T02:17:52.918Z,94982.08
2018-08-23T02:20:23.007Z,94975.18
2018-08-23T02:22:52.627Z,94979.05
2018-08-23T02:25:21.876Z,94975.21
2018-08-23T02:28:10.123Z,94976.56
2018-08-23T02:30:49.379Z,94983.86
2018-08-23T02:33:18.660Z,94986.78
2018-08-23T02:36:08.739Z,94982.52
2018-08-23T02:38:37.994Z,94983.84
2018-08-23T02:41:08.347Z,94987.59
2018-08-23T02:43:37.609Z,94982.62
2018-08-23T02:46:06.965Z,94988.23
2018-08-23T02:48:36.293Z,94991.66
2018-08-23T02:51:05.880Z,94989.83
2018-08-23T02:53:40.813Z,94988.32
2018-08-23T02:56:12.410Z,94993.53
2018-08-23T02:59:04.441Z,94987.64
2018-08-23T03:01:34.929Z,94994.50
2018-08-23T03:04:17.947Z,94978.65
2018-08-23T03:06:54.396Z,94979.56
2018-08-23T03:09:29.043Z,94978.83
2018-08-23T03:12:00.650Z,94977.40
2018-08-23T03:14:30.530Z,94976.89
2018-08-23T03:17:36.702Z,94983.70
2018-08-23T03:20:10.561Z,94982.10
2018-08-23T03:22:41.683Z,94982.42
2018-08-23T03:25:12.383Z,94979.56
2018-08-23T03:27:41.748Z,94981.47
2018-08-23T03:30:12.508Z,94977.19
2018-08-23T03:32:41.922Z,94977.13
2018-08-23T03:35:11.861Z,94983.21
2018-08-23T03:37:41.275Z,94982.30
2018-08-23T03:40:11.647Z,94982.62
2018-08-23T03:42:41.986Z,94980.16
2018-08-23T03:45:16.784Z,94983.63
2018-08-23T03:47:52.464Z,94986.77
2018-08-23T03:50:21.785Z,94978.83
2018-08-23T03:52:52.373Z,94985.13
2018-08-23T03:55:23.584Z,94986.17
2018-08-23T03:57:57.101Z,94989.72
2018-08-23T04:00:32.375Z,94989.71
2018-08-23T04:03:03.140Z,94990.72
2018-08-23T04:05:32.597Z,94989.41
2018-08-23T04:08:01.996Z,94991.33
2018-08-23T04:10:32.408Z,94991.52
2018-08-23T04:13:01.772Z,94993.77
2018-08-23T04:15:32.079Z,94990.92
2018-08-23T04:18:08.427Z,94996.09
2018-08-23T04:20:48.355Z,94992.93
2018-08-23T04:23:17.857Z,95000.55
2018-08-23T04:25:47.289Z,94993.83
2018-08-23T04:28:16.731Z,94994.44
2018-08-23T04:30:46.162Z,94990.78
2018-08-23T04:33:15.642Z,94991.44
2018-08-23T04:35:45.052Z,94994.98
2018-08-23T04:38:14.481Z,94989.88
2018-08-23T04:40:56.915Z,94989.19
2018-08-23T04:43:26.356Z,94990.69
2018-08-23T04:45:55.904Z,94982.27
2018-08-23T04:48:25.397Z,94990.00
2018-08-23T04:50:54.789Z,94988.48
2018-08-23T04:53:24.296Z,94995.17
2018-08-23T04:55:53.690Z,94986.33
2018-08-23T04:58:23.049Z,94989.40
2018-08-23T05:00:52.471Z,94991.64
2018-08-23T05:03:21.926Z,94978.53
2018-08-23T05:05:51.278Z,94982.88
2018-08-23T05:08:20.649Z,94983.74
2018-08-23T05:10:50.041Z,94981.70
2018-08-23T05:13:19.574Z,94983.94
2018-08-23T05:15:48.919Z,94978.87
2018-08-23T05:18:18.317Z,94983.98
2018-08-23T05:20:47.735Z,94978.64
2018-08-23T05:23:17.196Z,94986.77
2018-08-23T05:25:46.610Z,94979.85
2018-08-23T05:28:19.405Z,94980.14
2018-08-23T05:30:49.542Z,94979.70
2018-08-23T05:33:22.998Z,94975.63
2018-08-23T05:35:52.899Z,94973.27
2018-08-23T05:38:22.261Z,94962.47
2018-08-23T05:41:00.524Z,94969.38
2018-08-23T05:43:29.898Z,94964.63
2018-08-23T05:45:59.323Z,94962.13
2018-08-23T05:48:31.900Z,94959.74
2018-08-23T05:51:08.688Z,94965.90
2018-08-23T05:53:46.406Z,94962.83
2018-08-23T05:56:15.802Z,94968.33
2018-08-23T05:58:45.249Z,94975.36
2018-08-23T06:01:14.679Z,94969.44
2018-08-23T06:03:44.063Z,94972.83
2018-08-23T06:06:13.486Z,94977.23
2018-08-23T06:08:46.838Z,94970.03
2018-08-23T06:11:16.899Z,94968.39
2018-08-23T06:13:46.359Z,94968.64
2018-08-23T06:16:15.709Z,94969.43
2018-08-23T06:18:45.056Z,94975.29
2018-08-23T06:21:14.397Z,94967.09
2018-08-23T06:24:05.582Z,94964.75
2018-08-23T06:26:43.243Z,94967.12
2018-08-23T06:29:19.592Z,94960.72
2018-08-23T06:31:59.363Z,94960.36
2018-08-23T06:34:30.417Z,94957.80
2018-08-23T06:36:59.754Z,94958.50
2018-08-23T06:39:29.167Z,94957.97
2018-08-23T06:42:01.712Z,94962.22
2018-08-23T06:44:43.706Z,94960.17
2018-08-23T06:47:14.757Z,94958.69
2018-08-23T06:49:45.306Z,94962.20
2018-08-23T06:52:39.045Z,94960.41
2018-08-23T06:55:13.632Z,94960.59
2018-08-23T06:57:48.745Z,94956.66
2018-08-23T07:00:23.276Z,94958.42
2018-08-23T07:02:52.677Z,94965.41
2018-08-23T07:05:22.165Z,94959.39
2018-08-23T07:07:51.795Z,94955.87
2018-08-23T07:10:21.175Z,94963.86
2018-08-23T07:12:50.637Z,94958.55
2018-08-23T07:15:20.170Z,94955.14
2018-08-23T07:17:49.541Z,94957.98
2018-08-23T07:20:20.093Z,94956.06
2018-08-23T07:22:49.491Z,94952.83
2018-08-23T07:25:19.647Z,94947.46
2018-08-23T07:27:49.055Z,94952.66
2018-08-23T07:30:19.738Z,94956.23
2018-08-23T07:32:50.948Z,94955.20
2018-08-23T07:35:21.359Z,94950.89
2018-08-23T07:37:52.308Z,94944.73
2018-08-23T07:40:22.832Z,94945.45
2018-08-23T07:42:53.396Z,94945.98
2018-08-23T07:45:22.886Z,94944.55
2018-08-23T07:47:55.424Z,94945.72
2018-08-23T07:50:24.836Z,94946.35
2018-08-23T07:52:55.070Z,94954.05
2018-08-23T07:55:24.404Z,94951.20
2018-08-23T07:57:53.797Z,94959.31
2018-08-23T08:00:30.377Z,94954.71
2018-08-23T08:02:59.763Z,94953.69
2018-08-23T08:05:30.401Z,94952.89
2018-08-23T08:07:59.989Z,94955.37
2018-08-23T08:10:39.230Z,94950.01
2018-08-23T08:13:08.618Z,94953.08
2018-08-23T08:15:38.011Z,94963.58
2018-08-23T08:18:23.548Z,94953.79
2018-08-23T08:21:03.511Z,94953.38
2018-08-23T08:23:33.452Z,94959.31
2018-08-23T08:26:02.812Z,94958.48
2018-08-23T08:28:32.215Z,94956.77
2018-08-23T08:31:02.556Z,94956.11
2018-08-23T08:33:34.955Z,94952.95
2018-08-23T08:36:05.168Z,94954.59
2018-08-23T08:38:35.191Z,94951.19
2018-08-23T08:41:04.610Z,94946.75
2018-08-23T08:43:34.020Z,94946.05
2018-08-23T08:46:03.402Z,94944.73
2018-08-23T08:48:34.066Z,94949.74
2018-08-23T08:51:28.931Z,94949.08
2018-08-23T08:53:59.578Z,94943.97
2018-08-23T08:56:34.667Z,94949.06
2018-08-23T08:59:04.036Z,94944.00
2018-08-23T09:01:33.749Z,94946.97
2018-08-23T09:04:03.283Z,94950.02
2018-08-23T09:06:37.928Z,94945.30
2018-08-23T09:09:14.262Z,94937.53
2018-08-23T09:11:43.671Z,94942.63
2018-08-23T09:14:13.068Z,94935.10
2018-08-23T09:16:42.543Z,94941.41
2018-08-23T09:19:11.925Z,94930.99
2018-08-23T09:21:42.492Z,94933.27
2018-08-23T09:24:26.676Z,94926.72
2018-08-23T09:26:57.734Z,94925.57
2018-08-23T09:29:36.939Z,94913.63
2018-08-23T09:32:19.807Z,94916.80
2018-08-23T09:34:49.718Z,94917.25
2018-08-23T09:37:19.047Z,94913.95
2018-08-23T09:39:48.352Z,94893.38
2018-08-23T09:42:17.645Z,94916.89
2018-08-23T09:45:05.664Z,94926.98
2018-08-23T09:47:35.006Z,94919.06
2018-08-23T09:50:04.775Z,94915.70
2018-08-23T09:52:38.644Z,94911.78
2018-08-23T09:55:10.385Z,94904.70
2018-08-23T09:57:39.776Z,94912.64
2018-08-23T10:00:14.070Z,94905.20
2018-08-23T10:02:48.580Z,94901.31
2018-08-23T10:05:23.301Z,94893.42
2018-08-23T10:07:57.755Z,94889.78
2018-08-23T10:10:32.452Z,94887.25
2018-08-23T10:13:07.068Z,94884.30
2018-08-23T10:15:43.990Z,94881.70
2018-08-23T10:18:18.657Z,94880.64
2018-08-23T10:20:54.792Z,94876.55
2018-08-23T10:23:25.068Z,94876.63
2018-08-23T10:25:55.530Z,94864.93
2018-08-23T10:28:27.128Z,94871.87
2018-08-23T10:30:56.986Z,94868.31
2018-08-23T10:33:26.332Z,94868.05
2018-08-23T10:35:56.463Z,94871.85
2018-08-23T10:38:27.884Z,94862.95
2018-08-23T10:41:02.311Z,94859.81
2018-08-23T10:43:36.984Z,94862.55
2018-08-23T10:46:06.732Z,94863.52
2018-08-23T10:48:36.067Z,94861.13
2018-08-23T10:51:05.508Z,94856.94
2018-08-23T10:53:34.924Z,94864.52
2018-08-23T10:56:04.559Z,94853.72
2018-08-23T10:58:33.881Z,94861.95
2018-08-23T11:01:03.201Z,94861.41
2018-08-23T11:03:32.480Z,94853.63
2018-08-23T11:06:01.780Z,94850.97
2018-08-23T11:08:35.838Z,94853.40
2018-08-23T11:11:10.627Z,94848.99
2018-08-23T11:13:45.079Z,94848.67
2018-08-23T11:16:19.429Z,94848.09
2018-08-23T11:18:53.853Z,94847.87
2018-08-23T11:21:23.156Z,94843.91
2018-08-23T11:23:52.501Z,94845.54
2018-08-23T11:26:25.039Z,94839.10
2018-08-23T11:28:54.336Z,94827.58
2018-08-23T11:31:28.528Z,94834.94
2018-08-23T11:33:57.876Z,94830.06
2018-08-23T11:36:27.197Z,94829.61
2018-08-23T11:38:56.539Z,94831.43
2018-08-23T11:41:26.002Z,94826.28
2018-08-23T11:43:55.486Z,94821.31
2018-08-23T11:46:24.804Z,94815.05
2018-08-23T11:48:54.176Z,94807.45
2018-08-23T11:53:51.930Z,94812.42
2018-08-23T11:56:21.231Z,94805.23
2018-08-23T11:58:50.682Z,94810.41
2018-08-23T12:01:20.057Z,94799.66
2018-08-23T12:03:49.368Z,94802.33
2018-08-23T12:06:18.724Z,94792.66
2018-08-23T12:08:48.125Z,94795.36
2018-08-23T12:11:17.514Z,94793.58
2018-08-23T12:13:48.737Z,94794.37
2018-08-23T12:16:18.340Z,94787.64
2018-08-23T12:18:47.991Z,94778.41
2018-08-23T12:21:17.386Z,94780.19
2018-08-23T12:23:46.749Z,94775.09
2018-08-23T12:26:16.252Z,94775.80
2018-08-23T12:28:50.686Z,94765.28
2018-08-23T12:31:20.099Z,94767.89
2018-08-23T12:33:49.598Z,94758.42
2018-08-23T12:36:24.297Z,94758.66
2018-08-23T12:38:58.997Z,94755.03
2018-08-23T12:41:33.483Z,94750.33
2018-08-23T12:44:02.940Z,94744.14
2018-08-23T12:46:32.482Z,94744.05
2018-08-23T12:49:01.836Z,94746.54
2018-08-23T12:51:31.265Z,94755.38
2018-08-23T12:54:01.351Z,94757.67
2018-08-23T12:56:30.844Z,94764.97
2018-08-23T12:59:00.211Z,94763.30
2018-08-23T13:01:29.663Z,94755.84
2018-08-23T13:03:59.173Z,94754.39
2018-08-23T13:06:28.480Z,94749.28
2018-08-23T13:08:57.821Z,94746.00
2018-08-23T13:11:27.256Z,94745.52
2018-08-23T13:13:56.615Z,94738.96
2018-08-23T13:16:25.938Z,94736.53
2018-08-23T13:18:55.335Z,94738.34
2018-08-23T13:21:24.722Z,94739.53
2018-08-23T13:23:54.059Z,94736.94
2018-08-23T13:26:27.597Z,94740.67
2018-08-23T13:28:57.055Z,94739.25
2018-08-23T13:31:26.536Z,94738.59
2018-08-23T13:33:56.335Z,94743.07
2018-08-23T13:36:25.864Z,94739.73
2018-08-23T13:38:55.247Z,94740.41
2018-08-23T13:41:24.782Z,94735.23
2018-08-23T13:43:54.196Z,94724.36
2018-08-23T13:46:23.486Z,94732.43
2018-08-23T13:48:53.021Z,94726.48
2018-08-23T13:51:22.429Z,94724.97
2018-08-23T13:53:51.938Z,94725.23
2018-08-23T13:56:21.335Z,94730.14
2018-08-23T13:58:50.731Z,94740.83
2018-08-23T14:01:23.469Z,94747.87
2018-08-23T14:03:53.004Z,94750.41
2018-08-23T14:06:22.420Z,94756.58
2018-08-23T14:08:51.918Z,94753.36
2018-08-23T14:11:21.627Z,94758.63
2018-08-23T14:13:50.993Z,94761.75
2018-08-23T14:16:20.490Z,94754.50
2018-08-23T14:18:50.118Z,94747.47
2018-08-23T14:21:19.554Z,94740.08
2018-08-23T14:23:49.005Z,94753.03
2018-08-23T14:26:18.420Z,94747.63
2018-08-23T14:28:47.854Z,94749.02
2018-08-23T14:31:17.383Z,94760.05
2018-08-23T14:33:46.772Z,94764.05
2018-08-23T14:36:16.708Z,94778.52
2018-08-23T14:38:46.365Z,94791.34
2018-08-23T14:41:15.857Z,94798.05
2018-08-23T14:43:46.189Z,94807.38
2018-08-23T14:46:20.901Z,94808.58
2018-08-23T14:48:50.720Z,94819.33
2018-08-23T14:51:20.306Z,94811.92
2018-08-23T14:53:49.814Z,94825.08
2018-08-23T14:56:24.373Z,94835.41
2018-08-23T14:58:54.089Z,94843.91
2018-08-23T15:01:23.441Z,94842.98
2018-08-23T15:03:52.869Z,94838.44
2018-08-23T15:06:22.268Z,94826.44
2018-08-23T15:08:51.605Z,94802.05
2018-08-23T15:11:21.075Z,94778.58
2018-08-23T15:13:50.418Z,94764.75
2018-08-23T15:16:19.860Z,94766.56
2018-08-23T15:18:49.201Z,94773.28
2018-08-23T15:21:18.676Z,94774.57
2018-08-23T15:23:47.994Z,94774.56
2018-08-23T15:26:17.528Z,94772.48
2018-08-23T15:28:46.783Z,94774.03
2018-08-23T15:31:16.109Z,94774.89
2018-08-23T15:33:45.548Z,94781.69
2018-08-23T15:36:14.900Z,94779.55
2018-08-23T15:38:44.303Z,94775.00
2018-08-23T15:41:13.698Z,94769.39
2018-08-23T15:43:43.096Z,94777.67
2018-08-23T15:46:12.572Z,94781.09
2018-08-23T15:48:41.965Z,94782.32
2018-08-23T15:51:11.329Z,94776.98
2018-08-23T15:53:40.814Z,94778.68
2018-08-23T15:56:10.276Z,94779.95
2018-08-23T15:58:39.674Z,94787.53
2018-08-23T16:01:09.310Z,94783.69
2018-08-23T16:03:38.709Z,94776.58
2018-08-23T16:06:08.064Z,94773.98
2018-08-23T16:08:42.801Z,94776.08
2018-08-23T16:11:12.335Z,94772.19
2018-08-23T16:13:41.757Z,94765.96
2018-08-23T16:17:15.836Z,94761.52
2018-08-23T16:19:50.438Z,94750.16
2018-08-23T16:22:19.846Z,94745.24
2018-08-23T16:24:49.241Z,94740.41
2018-08-23T16:27:18.673Z,94733.73
2018-08-23T16:29:51.124Z,94729.38
2018-08-23T16:32:25.706Z,94729.33
2018-08-23T16:34:55.138Z,94726.13
2018-08-23T16:37:24.529Z,94726.57
2018-08-23T16:39:53.851Z,94723.95
2018-08-23T16:42:23.170Z,94737.68
2018-08-23T16:44:52.551Z,94735.70
2018-08-23T16:47:21.975Z,94740.33
2018-08-23T16:49:51.382Z,94736.06
2018-08-23T16:52:20.779Z,94739.09
2018-08-23T16:54:50.191Z,94754.17
2018-08-23T16:57:19.533Z,94752.41
2018-08-23T16:59:49.001Z,94753.02
2018-08-23T17:02:18.424Z,94750.95
2018-08-23T17:04:47.844Z,94754.91
2018-08-23T17:07:17.743Z,94755.69
2018-08-23T17:09:47.147Z,94755.50
2018-08-23T17:12:16.650Z,94762.09
2018-08-23T17:14:46.018Z,94762.15
2018-08-23T17:17:52.879Z,94769.25
2018-08-23T17:20:22.295Z,94778.63
2018-08-23T17:22:51.641Z,94790.17
2018-08-23T17:25:21.124Z,94818.43
2018-08-23T17:27:50.644Z,94824.57
2018-08-23T17:30:20.044Z,94816.59
2018-08-23T17:32:49.396Z,94811.05
2018-08-23T17:35:18.808Z,94815.10
2018-08-23T17:37:48.159Z,94823.90
2018-08-23T17:40:17.576Z,94818.12
2018-08-23T17:42:47.093Z,94813.45
2018-08-23T17:45:16.589Z,94823.90
2018-08-23T17:47:46.069Z,94820.90
2018-08-23T17:50:15.486Z,94828.02
2018-08-23T17:52:44.870Z,94826.34
2018-08-23T17:55:14.148Z,94823.87
2018-08-23T17:57:43.508Z,94815.70
2018-08-23T18:00:12.898Z,94815.87
2018-08-23T18:02:42.239Z,94816.84
2018-08-23T18:05:11.640Z,94814.24
2018-08-23T18:07:41.100Z,94811.86
2018-08-23T18:10:10.521Z,94816.98
2018-08-23T18:12:39.932Z,94820.55
2018-08-23T18:15:10.080Z,94822.65
2018-08-23T18:17:40.512Z,94822.98
2018-08-23T18:20:10.220Z,94814.52
2018-08-23T18:22:39.684Z,94816.30
2018-08-23T18:25:09.481Z,94821.95
2018-08-23T18:27:40.071Z,94822.09
2018-08-23T18:30:09.581Z,94823.46
2018-08-23T18:32:39.118Z,94829.38
2018-08-23T18:35:08.445Z,94834.03
2018-08-23T18:37:38.048Z,94831.89
2018-08-23T18:40:07.358Z,94832.70
2018-08-23T18:42:36.786Z,94824.17
2018-08-23T18:45:06.256Z,94828.00
2018-08-23T18:47:35.702Z,94829.52
2018-08-23T18:50:05.903Z,94831.89
2018-08-23T18:52:35.424Z,94829.48
2018-08-23T18:55:05.208Z,94820.41
2018-08-23T18:57:35.377Z,94829.08
2018-08-23T19:00:06.320Z,94821.79
2018-08-23T19:02:36.716Z,94821.38
2018-08-23T19:05:06.212Z,94826.23
2018-08-23T19:07:40.620Z,94820.70
2018-08-23T19:10:11.305Z,94823.84
2018-08-23T19:12:40.945Z,94828.07
2018-08-23T19:15:11.245Z,94825.48
2018-08-23T19:17:41.719Z,94833.05
2018-08-23T19:20:12.459Z,94825.86
2018-08-23T19:22:41.884Z,94827.48
2018-08-23T19:25:11.617Z,94830.94
2018-08-23T19:27:40.891Z,94836.55
2018-08-23T19:30:10.790Z,94840.70
2018-08-23T19:32:40.121Z,94842.33
2018-08-23T19:35:09.581Z,94849.86
2018-08-23T19:37:39.001Z,94850.82
2018-08-23T19:40:08.957Z,94846.45
2018-08-23T19:42:38.320Z,94840.58
2018-08-23T19:45:07.803Z,94836.66
2018-08-23T19:47:48.781Z,94840.14
2018-08-23T19:50:19.172Z,94836.58
2018-08-23T19:52:49.249Z,94826.52
2018-08-23T19:55:19.175Z,94827.51
2018-08-23T19:57:50.433Z,94828.81
2018-08-23T20:00:20.885Z,94822.05
2018-08-23T20:02:50.288Z,94825.22
2018-08-23T20:05:19.644Z,94825.06
2018-08-23T20:07:49.073Z,94821.37
2018-08-23T20:10:18.758Z,94816.16
2018-08-23T20:12:48.447Z,94817.19
2018-08-23T20:15:27.600Z,94813.46
2018-08-23T20:17:57.646Z,94813.70
2018-08-23T20:20:28.061Z,94801.40
2018-08-23T20:22:58.174Z,94795.31
2018-08-23T20:25:28.174Z,94798.20
2018-08-23T20:27:58.611Z,94797.00
2018-08-23T20:30:28.460Z,94796.70
2018-08-23T20:32:58.436Z,94786.68
2018-08-23T20:35:28.552Z,94783.86
2018-08-23T20:37:59.939Z,94790.80
2018-08-23T20:40:29.792Z,94797.35
2018-08-23T20:43:00.302Z,94799.24
2018-08-23T20:45:30.039Z,94794.89
2018-08-23T20:47:59.953Z,94787.43
2018-08-23T20:50:30.599Z,94784.62
2018-08-23T20:53:00.779Z,94788.25
2018-08-23T20:55:30.306Z,94788.31
2018-08-23T20:57:59.774Z,94781.18
2018-08-23T21:00:29.459Z,94782.53
2018-08-23T21:02:59.289Z,94784.71
2018-08-23T21:05:28.643Z,94777.25
2018-08-23T21:07:57.977Z,94776.16
2018-08-23T21:10:27.301Z,94782.53
2018-08-23T21:12:56.742Z,94768.88
2018-08-23T21:15:26.108Z,94767.79
2018-08-23T21:17:55.474Z,94766.44
2018-08-23T21:20:24.827Z,94774.86
2018-08-23T21:22:54.137Z,94777.84
2018-08-23T21:25:23.454Z,94772.05
2018-08-23T21:27:52.855Z,94780.19
2018-08-23T21:30:22.236Z,94778.20
2018-08-23T21:32:51.574Z,94778.60
2018-08-23T21:35:20.931Z,94772.66
2018-08-23T21:37:50.338Z,94778.05
2018-08-23T21:40:19.765Z,94783.31
2018-08-23T21:42:49.179Z,94777.95
2018-08-23T21:45:18.669Z,94774.44
2018-08-23T21:47:48.082Z,94773.14
2018-08-23T21:50:17.508Z,94764.86
2018-08-23T21:52:46.923Z,94766.42
2018-08-23T21:55:16.303Z,94763.50
2018-08-23T21:57:45.696Z,94760.42
2018-08-23T22:00:15.121Z,94762.17
2018-08-23T22:02:44.518Z,94752.99
2018-08-23T22:05:13.907Z,94758.39
2018-08-23T22:07:43.256Z,94755.69
2018-08-23T22:10:12.655Z,94755.08
2018-08-23T22:12:42.059Z,94747.23
2018-08-23T22:15:12.768Z,94748.19
2018-08-23T22:17:42.076Z,94747.75
2018-08-23T22:20:11.639Z,94754.41
2018-08-23T22:22:41.092Z,94744.57
2018-08-23T22:25:10.610Z,94743.88
2018-08-23T22:27:40.052Z,94747.58
2018-08-23T22:30:09.415Z,94751.36
2018-08-23T22:32:38.785Z,94755.05
2018-08-23T22:35:08.163Z,94746.59
2018-08-23T22:37:37.886Z,94748.98
2018-08-23T22:40:07.467Z,94746.14
2018-08-23T22:42:36.951Z,94738.83
2018-08-23T22:45:06.389Z,94745.25
2018-08-23T22:47:35.753Z,94742.20
2018-08-23T22:50:05.455Z,94746.77
2018-08-23T22:52:34.837Z,94746.21
2018-08-23T22:55:04.171Z,94743.96
2018-08-23T22:57:33.484Z,94737.35
2018-08-23T23:00:02.941Z,94737.02
2018-08-23T23:02:38.763Z,94738.25
2018-08-23T23:05:09.208Z,94738.29
2018-08-23T23:07:38.614Z,94732.06
2018-08-23T23:10:08.603Z,94734.84
2018-08-23T23:12:38.033Z,94734.04
2018-08-23T23:15:11.503Z,94728.09
2018-08-23T23:17:40.868Z,94723.87
2018-08-23T23:20:10.239Z,94725.87
2018-08-23T23:22:39.632Z,94725.63
2018-08-23T23:25:09.007Z,94722.71
2018-08-23T23:27:38.366Z,94717.25
2018-08-23T23:30:08.068Z,94724.55
2018-08-23T23:32:37.406Z,94734.39
2018-08-23T23:35:06.772Z,94726.45
2018-08-23T23:37:36.185Z,94731.59
2018-08-23T23:40:05.576Z,94729.25
2018-08-23T23:42:34.926Z,94728.95
2018-08-23T23:45:04.590Z,94727.15
2018-08-23T23:47:33.937Z,94724.11
2018-08-23T23:50:03.461Z,94720.18
2018-08-23T23:52:32.805Z,94717.84
2018-08-23T23:55:02.187Z,94709.95
2018-08-23T23:57:31.519Z,94706.98
